sensor_id;sensor_type;location;lat;lon;timestamp;P1;durP1;ratioP1;P2;durP2;ratioP2
6300;SDS011;3183;51.010;6.898;2023-02-15T00:01:26;45.33;;;20.07;;
6300;SDS011;3183;51.010;6.898;2023-02-15T00:03:53;52.57;;;23.23;;
6300;SDS011;3183;51.010;6.898;2023-02-15T00:06:21;49.90;;;21.10;;
6300;SDS011;3183;51.010;6.898;2023-02-15T00:08:49;47.50;;;22.07;;
6300;SDS011;3183;51.010;6.898;2023-02-15T00:11:17;46.33;;;20.60;;
6300;SDS011;3183;51.010;6.898;2023-02-15T00:14:04;45.27;;;20.23;;
6300;SDS011;3183;51.010;6.898;2023-02-15T00:16:31;46.20;;;21.10;;
6300;SDS011;3183;51.010;6.898;2023-02-15T00:18:59;51.53;;;19.67;;
6300;SDS011;3183;51.010;6.898;2023-02-15T00:21:27;44.00;;;20.83;;
6300;SDS011;3183;51.010;6.898;2023-02-15T00:23:56;43.13;;;19.50;;
6300;SDS011;3183;51.010;6.898;2023-02-15T00:26:23;42.17;;;20.30;;
6300;SDS011;3183;51.010;6.898;2023-02-15T00:28:50;47.37;;;20.57;;
6300;SDS011;3183;51.010;6.898;2023-02-15T00:31:17;41.27;;;20.40;;
6300;SDS011;3183;51.010;6.898;2023-02-15T00:33:45;45.93;;;21.37;;
6300;SDS011;3183;51.010;6.898;2023-02-15T00:36:12;58.80;;;23.53;;
6300;SDS011;3183;51.010;6.898;2023-02-15T00:38:39;50.40;;;21.73;;
6300;SDS011;3183;51.010;6.898;2023-02-15T00:41:08;45.03;;;19.70;;
6300;SDS011;3183;51.010;6.898;2023-02-15T00:43:35;44.67;;;18.80;;
6300;SDS011;3183;51.010;6.898;2023-02-15T00:46:03;47.77;;;21.63;;
6300;SDS011;3183;51.010;6.898;2023-02-15T00:48:31;46.63;;;20.10;;
6300;SDS011;3183;51.010;6.898;2023-02-15T00:50:58;43.70;;;19.70;;
6300;SDS011;3183;51.010;6.898;2023-02-15T00:53:26;46.10;;;20.23;;
6300;SDS011;3183;51.010;6.898;2023-02-15T00:55:54;55.50;;;22.93;;
6300;SDS011;3183;51.010;6.898;2023-02-15T00:58:22;47.97;;;21.87;;
6300;SDS011;3183;51.010;6.898;2023-02-15T01:00:50;55.37;;;24.40;;
6300;SDS011;3183;51.010;6.898;2023-02-15T01:03:18;42.40;;;19.47;;
6300;SDS011;3183;51.010;6.898;2023-02-15T01:05:46;47.67;;;20.93;;
6300;SDS011;3183;51.010;6.898;2023-02-15T01:08:13;53.20;;;21.77;;
6300;SDS011;3183;51.010;6.898;2023-02-15T01:10:40;51.27;;;20.90;;
6300;SDS011;3183;51.010;6.898;2023-02-15T01:13:09;51.10;;;21.07;;
6300;SDS011;3183;51.010;6.898;2023-02-15T01:15:37;52.57;;;21.77;;
6300;SDS011;3183;51.010;6.898;2023-02-15T01:18:04;48.00;;;21.50;;
6300;SDS011;3183;51.010;6.898;2023-02-15T01:20:33;53.27;;;22.00;;
6300;SDS011;3183;51.010;6.898;2023-02-15T01:23:01;52.60;;;21.33;;
6300;SDS011;3183;51.010;6.898;2023-02-15T01:25:28;45.23;;;21.93;;
6300;SDS011;3183;51.010;6.898;2023-02-15T01:27:56;45.00;;;20.13;;
6300;SDS011;3183;51.010;6.898;2023-02-15T01:30:23;54.83;;;22.10;;
6300;SDS011;3183;51.010;6.898;2023-02-15T01:32:51;56.43;;;22.70;;
6300;SDS011;3183;51.010;6.898;2023-02-15T01:35:18;51.50;;;21.23;;
6300;SDS011;3183;51.010;6.898;2023-02-15T01:37:46;51.63;;;21.40;;
6300;SDS011;3183;51.010;6.898;2023-02-15T01:40:13;49.70;;;19.60;;
6300;SDS011;3183;51.010;6.898;2023-02-15T01:42:41;53.83;;;21.23;;
6300;SDS011;3183;51.010;6.898;2023-02-15T01:45:14;45.73;;;20.93;;
6300;SDS011;3183;51.010;6.898;2023-02-15T01:47:44;45.40;;;20.20;;
6300;SDS011;3183;51.010;6.898;2023-02-15T01:50:15;48.30;;;19.93;;
6300;SDS011;3183;51.010;6.898;2023-02-15T01:52:44;45.90;;;21.87;;
6300;SDS011;3183;51.010;6.898;2023-02-15T01:55:13;50.37;;;20.00;;
6300;SDS011;3183;51.010;6.898;2023-02-15T01:57:40;48.70;;;20.17;;
6300;SDS011;3183;51.010;6.898;2023-02-15T02:00:08;45.53;;;20.30;;
6300;SDS011;3183;51.010;6.898;2023-02-15T02:02:35;49.90;;;22.40;;
6300;SDS011;3183;51.010;6.898;2023-02-15T02:05:03;48.93;;;20.07;;
6300;SDS011;3183;51.010;6.898;2023-02-15T02:07:34;49.20;;;21.33;;
6300;SDS011;3183;51.010;6.898;2023-02-15T02:10:04;59.30;;;23.60;;
6300;SDS011;3183;51.010;6.898;2023-02-15T02:12:31;48.13;;;21.30;;
6300;SDS011;3183;51.010;6.898;2023-02-15T02:14:59;41.13;;;19.23;;
6300;SDS011;3183;51.010;6.898;2023-02-15T02:17:27;51.33;;;21.23;;
6300;SDS011;3183;51.010;6.898;2023-02-15T02:20:17;54.77;;;20.67;;
6300;SDS011;3183;51.010;6.898;2023-02-15T02:28:42;49.80;;;21.57;;
6300;SDS011;3183;51.010;6.898;2023-02-15T02:31:19;47.63;;;19.90;;
6300;SDS011;3183;51.010;6.898;2023-02-15T02:33:53;50.43;;;20.10;;
6300;SDS011;3183;51.010;6.898;2023-02-15T02:36:24;49.53;;;19.70;;
6300;SDS011;3183;51.010;6.898;2023-02-15T02:39:06;49.13;;;18.93;;
6300;SDS011;3183;51.010;6.898;2023-02-15T02:41:36;40.83;;;19.50;;
6300;SDS011;3183;51.010;6.898;2023-02-15T02:44:07;44.13;;;20.27;;
6300;SDS011;3183;51.010;6.898;2023-02-15T02:46:39;41.83;;;19.27;;
6300;SDS011;3183;51.010;6.898;2023-02-15T02:49:12;47.43;;;20.40;;
6300;SDS011;3183;51.010;6.898;2023-02-15T02:51:39;49.53;;;21.40;;
6300;SDS011;3183;51.010;6.898;2023-02-15T02:54:06;42.73;;;20.80;;
6300;SDS011;3183;51.010;6.898;2023-02-15T02:56:35;47.47;;;20.33;;
6300;SDS011;3183;51.010;6.898;2023-02-15T02:59:04;50.70;;;19.17;;
6300;SDS011;3183;51.010;6.898;2023-02-15T03:01:34;37.23;;;17.83;;
6300;SDS011;3183;51.010;6.898;2023-02-15T03:04:03;45.93;;;19.53;;
6300;SDS011;3183;51.010;6.898;2023-02-15T03:06:35;50.93;;;20.13;;
6300;SDS011;3183;51.010;6.898;2023-02-15T03:09:03;49.00;;;19.53;;
6300;SDS011;3183;51.010;6.898;2023-02-15T03:11:37;46.10;;;19.73;;
6300;SDS011;3183;51.010;6.898;2023-02-15T03:14:04;40.37;;;17.93;;
6300;SDS011;3183;51.010;6.898;2023-02-15T03:16:31;51.90;;;21.00;;
6300;SDS011;3183;51.010;6.898;2023-02-15T03:19:06;46.53;;;19.03;;
6300;SDS011;3183;51.010;6.898;2023-02-15T03:21:37;51.37;;;21.47;;
6300;SDS011;3183;51.010;6.898;2023-02-15T03:24:07;39.77;;;18.40;;
6300;SDS011;3183;51.010;6.898;2023-02-15T03:26:36;43.63;;;19.60;;
6300;SDS011;3183;51.010;6.898;2023-02-15T03:29:04;45.50;;;18.00;;
6300;SDS011;3183;51.010;6.898;2023-02-15T03:31:33;48.07;;;19.97;;
6300;SDS011;3183;51.010;6.898;2023-02-15T03:34:03;45.33;;;18.90;;
6300;SDS011;3183;51.010;6.898;2023-02-15T03:36:32;42.80;;;19.17;;
6300;SDS011;3183;51.010;6.898;2023-02-15T03:39:04;51.20;;;20.30;;
6300;SDS011;3183;51.010;6.898;2023-02-15T03:41:34;44.27;;;18.40;;
6300;SDS011;3183;51.010;6.898;2023-02-15T03:44:06;46.67;;;18.60;;
6300;SDS011;3183;51.010;6.898;2023-02-15T03:46:36;52.90;;;19.80;;
6300;SDS011;3183;51.010;6.898;2023-02-15T03:49:06;40.17;;;18.17;;
6300;SDS011;3183;51.010;6.898;2023-02-15T03:51:35;43.97;;;19.63;;
6300;SDS011;3183;51.010;6.898;2023-02-15T03:54:06;52.37;;;22.70;;
6300;SDS011;3183;51.010;6.898;2023-02-15T03:56:34;45.33;;;19.60;;
6300;SDS011;3183;51.010;6.898;2023-02-15T03:59:02;44.53;;;18.87;;
6300;SDS011;3183;51.010;6.898;2023-02-15T04:01:48;42.87;;;17.17;;
6300;SDS011;3183;51.010;6.898;2023-02-15T04:04:26;44.73;;;19.07;;
6300;SDS011;3183;51.010;6.898;2023-02-15T04:06:55;46.20;;;20.07;;
6300;SDS011;3183;51.010;6.898;2023-02-15T04:09:23;42.07;;;17.67;;
6300;SDS011;3183;51.010;6.898;2023-02-15T04:12:08;50.20;;;19.27;;
6300;SDS011;3183;51.010;6.898;2023-02-15T04:14:35;43.33;;;18.90;;
6300;SDS011;3183;51.010;6.898;2023-02-15T04:17:20;46.80;;;17.67;;
6300;SDS011;3183;51.010;6.898;2023-02-15T04:19:47;48.97;;;20.50;;
6300;SDS011;3183;51.010;6.898;2023-02-15T04:22:32;50.70;;;20.27;;
6300;SDS011;3183;51.010;6.898;2023-02-15T04:25:18;42.23;;;17.13;;
6300;SDS011;3183;51.010;6.898;2023-02-15T04:27:47;50.83;;;20.37;;
6300;SDS011;3183;51.010;6.898;2023-02-15T04:30:15;51.93;;;21.50;;
6300;SDS011;3183;51.010;6.898;2023-02-15T04:32:43;58.20;;;20.20;;
6300;SDS011;3183;51.010;6.898;2023-02-15T04:35:11;40.97;;;19.00;;
6300;SDS011;3183;51.010;6.898;2023-02-15T04:37:38;40.17;;;17.60;;
6300;SDS011;3183;51.010;6.898;2023-02-15T04:40:06;46.87;;;17.83;;
6300;SDS011;3183;51.010;6.898;2023-02-15T04:42:34;41.00;;;18.23;;
6300;SDS011;3183;51.010;6.898;2023-02-15T04:45:02;41.03;;;18.90;;
6300;SDS011;3183;51.010;6.898;2023-02-15T04:47:29;48.93;;;20.10;;
6300;SDS011;3183;51.010;6.898;2023-02-15T04:49:56;44.37;;;18.43;;
6300;SDS011;3183;51.010;6.898;2023-02-15T04:52:23;47.93;;;19.97;;
6300;SDS011;3183;51.010;6.898;2023-02-15T04:54:50;45.17;;;19.60;;
6300;SDS011;3183;51.010;6.898;2023-02-15T04:57:18;40.67;;;18.73;;
6300;SDS011;3183;51.010;6.898;2023-02-15T04:59:46;40.40;;;17.40;;
6300;SDS011;3183;51.010;6.898;2023-02-15T05:02:13;45.00;;;17.70;;
6300;SDS011;3183;51.010;6.898;2023-02-15T05:04:40;41.23;;;18.10;;
6300;SDS011;3183;51.010;6.898;2023-02-15T05:07:07;41.33;;;19.33;;
6300;SDS011;3183;51.010;6.898;2023-02-15T05:09:35;47.97;;;17.83;;
6300;SDS011;3183;51.010;6.898;2023-02-15T05:12:02;43.57;;;17.67;;
6300;SDS011;3183;51.010;6.898;2023-02-15T05:14:29;43.57;;;19.53;;
6300;SDS011;3183;51.010;6.898;2023-02-15T05:16:57;46.35;;;20.33;;
6300;SDS011;3183;51.010;6.898;2023-02-15T05:19:26;46.60;;;22.25;;
6300;SDS011;3183;51.010;6.898;2023-02-15T05:21:53;50.20;;;20.10;;
6300;SDS011;3183;51.010;6.898;2023-02-15T05:24:20;48.80;;;19.80;;
6300;SDS011;3183;51.010;6.898;2023-02-15T05:27:05;44.80;;;17.80;;
6300;SDS011;3183;51.010;6.898;2023-02-15T05:29:51;41.17;;;19.30;;
6300;SDS011;3183;51.010;6.898;2023-02-15T05:32:20;39.00;;;17.90;;
6300;SDS011;3183;51.010;6.898;2023-02-15T05:34:47;45.37;;;18.63;;
6300;SDS011;3183;51.010;6.898;2023-02-15T05:37:14;42.22;;;19.92;;
6300;SDS011;3183;51.010;6.898;2023-02-15T05:39:41;41.97;;;18.53;;
6300;SDS011;3183;51.010;6.898;2023-02-15T05:42:08;41.67;;;19.50;;
6300;SDS011;3183;51.010;6.898;2023-02-15T05:44:35;43.33;;;18.93;;
6300;SDS011;3183;51.010;6.898;2023-02-15T05:47:03;38.20;;;17.00;;
6300;SDS011;3183;51.010;6.898;2023-02-15T05:49:33;36.80;;;16.90;;
6300;SDS011;3183;51.010;6.898;2023-02-15T05:52:01;40.77;;;17.70;;
6300;SDS011;3183;51.010;6.898;2023-02-15T05:54:29;48.30;;;19.90;;
6300;SDS011;3183;51.010;6.898;2023-02-15T05:56:56;48.03;;;17.90;;
6300;SDS011;3183;51.010;6.898;2023-02-15T05:59:23;43.23;;;18.20;;
6300;SDS011;3183;51.010;6.898;2023-02-15T06:01:50;47.60;;;18.90;;
6300;SDS011;3183;51.010;6.898;2023-02-15T06:04:17;36.70;;;16.10;;
6300;SDS011;3183;51.010;6.898;2023-02-15T06:06:46;42.87;;;17.67;;
6300;SDS011;3183;51.010;6.898;2023-02-15T06:09:13;34.73;;;16.40;;
6300;SDS011;3183;51.010;6.898;2023-02-15T06:11:43;43.90;;;16.90;;
6300;SDS011;3183;51.010;6.898;2023-02-15T06:14:10;40.70;;;17.23;;
6300;SDS011;3183;51.010;6.898;2023-02-15T06:16:37;36.27;;;17.80;;
6300;SDS011;3183;51.010;6.898;2023-02-15T06:19:04;39.47;;;16.83;;
6300;SDS011;3183;51.010;6.898;2023-02-15T06:21:31;40.87;;;17.27;;
6300;SDS011;3183;51.010;6.898;2023-02-15T06:24:00;44.80;;;17.73;;
6300;SDS011;3183;51.010;6.898;2023-02-15T06:26:27;44.90;;;16.43;;
6300;SDS011;3183;51.010;6.898;2023-02-15T06:28:54;40.73;;;15.63;;
6300;SDS011;3183;51.010;6.898;2023-02-15T06:31:21;40.13;;;17.27;;
6300;SDS011;3183;51.010;6.898;2023-02-15T06:33:49;45.23;;;18.30;;
6300;SDS011;3183;51.010;6.898;2023-02-15T06:36:16;43.60;;;16.77;;
6300;SDS011;3183;51.010;6.898;2023-02-15T06:38:43;36.00;;;16.53;;
6300;SDS011;3183;51.010;6.898;2023-02-15T06:41:11;42.97;;;17.37;;
6300;SDS011;3183;51.010;6.898;2023-02-15T06:43:39;40.87;;;16.17;;
6300;SDS011;3183;51.010;6.898;2023-02-15T06:46:06;38.93;;;17.80;;
6300;SDS011;3183;51.010;6.898;2023-02-15T06:48:33;42.87;;;17.60;;
6300;SDS011;3183;51.010;6.898;2023-02-15T06:51:00;43.10;;;17.93;;
6300;SDS011;3183;51.010;6.898;2023-02-15T06:53:27;40.60;;;17.07;;
6300;SDS011;3183;51.010;6.898;2023-02-15T06:55:59;36.90;;;16.77;;
6300;SDS011;3183;51.010;6.898;2023-02-15T06:58:29;48.93;;;18.20;;
6300;SDS011;3183;51.010;6.898;2023-02-15T07:00:56;44.73;;;17.80;;
6300;SDS011;3183;51.010;6.898;2023-02-15T07:03:23;42.33;;;16.83;;
6300;SDS011;3183;51.010;6.898;2023-02-15T07:05:53;38.67;;;16.80;;
6300;SDS011;3183;51.010;6.898;2023-02-15T07:08:20;41.00;;;17.73;;
6300;SDS011;3183;51.010;6.898;2023-02-15T07:10:48;43.43;;;18.33;;
6300;SDS011;3183;51.010;6.898;2023-02-15T07:13:15;42.70;;;18.43;;
6300;SDS011;3183;51.010;6.898;2023-02-15T07:15:43;37.60;;;16.57;;
6300;SDS011;3183;51.010;6.898;2023-02-15T07:18:10;34.40;;;16.77;;
6300;SDS011;3183;51.010;6.898;2023-02-15T07:20:37;39.43;;;16.33;;
6300;SDS011;3183;51.010;6.898;2023-02-15T07:23:06;40.43;;;16.47;;
6300;SDS011;3183;51.010;6.898;2023-02-15T07:25:34;37.10;;;17.50;;
6300;SDS011;3183;51.010;6.898;2023-02-15T07:28:02;40.03;;;17.60;;
6300;SDS011;3183;51.010;6.898;2023-02-15T07:30:30;30.67;;;14.60;;
6300;SDS011;3183;51.010;6.898;2023-02-15T07:32:59;40.80;;;17.03;;
6300;SDS011;3183;51.010;6.898;2023-02-15T07:35:47;41.93;;;16.47;;
6300;SDS011;3183;51.010;6.898;2023-02-15T07:38:14;34.70;;;16.07;;
6300;SDS011;3183;51.010;6.898;2023-02-15T07:40:41;37.60;;;15.33;;
6300;SDS011;3183;51.010;6.898;2023-02-15T07:43:08;36.80;;;16.20;;
6300;SDS011;3183;51.010;6.898;2023-02-15T07:45:36;29.60;;;13.93;;
6300;SDS011;3183;51.010;6.898;2023-02-15T07:48:05;34.00;;;15.43;;
6300;SDS011;3183;51.010;6.898;2023-02-15T07:50:32;41.30;;;16.27;;
6300;SDS011;3183;51.010;6.898;2023-02-15T07:53:00;36.93;;;17.03;;
6300;SDS011;3183;51.010;6.898;2023-02-15T07:55:28;38.33;;;16.20;;
6300;SDS011;3183;51.010;6.898;2023-02-15T07:57:55;30.93;;;15.93;;
6300;SDS011;3183;51.010;6.898;2023-02-15T08:00:22;35.30;;;15.07;;
6300;SDS011;3183;51.010;6.898;2023-02-15T08:02:51;34.33;;;15.40;;
6300;SDS011;3183;51.010;6.898;2023-02-15T08:05:39;33.20;;;14.63;;
6300;SDS011;3183;51.010;6.898;2023-02-15T08:08:07;32.70;;;14.73;;
6300;SDS011;3183;51.010;6.898;2023-02-15T08:10:56;33.20;;;14.50;;
6300;SDS011;3183;51.010;6.898;2023-02-15T08:13:42;26.07;;;13.43;;
6300;SDS011;3183;51.010;6.898;2023-02-15T08:16:19;25.20;;;12.33;;
6300;SDS011;3183;51.010;6.898;2023-02-15T08:18:46;24.20;;;12.63;;
6300;SDS011;3183;51.010;6.898;2023-02-15T08:21:14;22.30;;;13.17;;
6300;SDS011;3183;51.010;6.898;2023-02-15T08:23:41;19.17;;;11.60;;
6300;SDS011;3183;51.010;6.898;2023-02-15T08:26:09;25.80;;;11.43;;
6300;SDS011;3183;51.010;6.898;2023-02-15T08:28:36;21.43;;;11.13;;
6300;SDS011;3183;51.010;6.898;2023-02-15T08:31:04;19.07;;;10.17;;
6300;SDS011;3183;51.010;6.898;2023-02-15T08:33:31;23.67;;;12.43;;
6300;SDS011;3183;51.010;6.898;2023-02-15T08:36:01;27.43;;;11.60;;
6300;SDS011;3183;51.010;6.898;2023-02-15T08:38:30;23.07;;;11.23;;
6300;SDS011;3183;51.010;6.898;2023-02-15T08:40:57;21.97;;;12.20;;
6300;SDS011;3183;51.010;6.898;2023-02-15T08:43:25;20.33;;;11.90;;
6300;SDS011;3183;51.010;6.898;2023-02-15T08:45:52;31.30;;;12.37;;
6300;SDS011;3183;51.010;6.898;2023-02-15T08:48:19;19.30;;;11.20;;
6300;SDS011;3183;51.010;6.898;2023-02-15T08:50:46;22.47;;;11.30;;
6300;SDS011;3183;51.010;6.898;2023-02-15T08:53:13;45.07;;;12.80;;
6300;SDS011;3183;51.010;6.898;2023-02-15T08:55:41;27.80;;;10.63;;
6300;SDS011;3183;51.010;6.898;2023-02-15T08:58:09;19.00;;;11.00;;
6300;SDS011;3183;51.010;6.898;2023-02-15T09:00:36;21.63;;;10.80;;
6300;SDS011;3183;51.010;6.898;2023-02-15T09:03:03;21.33;;;11.37;;
6300;SDS011;3183;51.010;6.898;2023-02-15T09:05:30;20.57;;;11.40;;
6300;SDS011;3183;51.010;6.898;2023-02-15T09:07:57;21.13;;;11.80;;
6300;SDS011;3183;51.010;6.898;2023-02-15T09:10:24;20.23;;;10.27;;
6300;SDS011;3183;51.010;6.898;2023-02-15T09:12:53;23.40;;;9.70;;
6300;SDS011;3183;51.010;6.898;2023-02-15T09:15:20;21.07;;;10.50;;
6300;SDS011;3183;51.010;6.898;2023-02-15T09:17:47;21.87;;;11.33;;
6300;SDS011;3183;51.010;6.898;2023-02-15T09:20:14;19.23;;;10.90;;
6300;SDS011;3183;51.010;6.898;2023-02-15T09:22:42;22.03;;;10.97;;
6300;SDS011;3183;51.010;6.898;2023-02-15T09:25:10;16.00;;;10.30;;
6300;SDS011;3183;51.010;6.898;2023-02-15T09:27:38;17.43;;;9.70;;
6300;SDS011;3183;51.010;6.898;2023-02-15T09:30:08;18.20;;;10.73;;
6300;SDS011;3183;51.010;6.898;2023-02-15T09:32:35;19.73;;;10.50;;
6300;SDS011;3183;51.010;6.898;2023-02-15T09:35:02;18.47;;;10.67;;
6300;SDS011;3183;51.010;6.898;2023-02-15T09:37:29;24.30;;;10.20;;
6300;SDS011;3183;51.010;6.898;2023-02-15T09:39:57;19.10;;;11.37;;
6300;SDS011;3183;51.010;6.898;2023-02-15T09:42:34;22.07;;;10.63;;
6300;SDS011;3183;51.010;6.898;2023-02-15T09:45:09;29.53;;;10.70;;
6300;SDS011;3183;51.010;6.898;2023-02-15T09:47:57;17.93;;;10.23;;
6300;SDS011;3183;51.010;6.898;2023-02-15T09:50:28;19.00;;;10.17;;
6300;SDS011;3183;51.010;6.898;2023-02-15T09:53:08;70.53;;;12.93;;
6300;SDS011;3183;51.010;6.898;2023-02-15T09:55:43;17.53;;;9.87;;
6300;SDS011;3183;51.010;6.898;2023-02-15T09:58:13;18.67;;;9.20;;
6300;SDS011;3183;51.010;6.898;2023-02-15T10:00:47;15.50;;;8.67;;
6300;SDS011;3183;51.010;6.898;2023-02-15T10:03:21;21.70;;;10.93;;
6300;SDS011;3183;51.010;6.898;2023-02-15T10:05:56;22.07;;;10.10;;
6300;SDS011;3183;51.010;6.898;2023-02-15T10:08:31;20.10;;;10.93;;
6300;SDS011;3183;51.010;6.898;2023-02-15T10:11:06;23.50;;;11.17;;
6300;SDS011;3183;51.010;6.898;2023-02-15T10:13:56;21.10;;;11.17;;
6300;SDS011;3183;51.010;6.898;2023-02-15T10:16:34;19.17;;;10.43;;
6300;SDS011;3183;51.010;6.898;2023-02-15T10:19:07;18.23;;;10.07;;
6300;SDS011;3183;51.010;6.898;2023-02-15T10:21:42;20.80;;;10.93;;
6300;SDS011;3183;51.010;6.898;2023-02-15T10:24:16;22.90;;;11.43;;
6300;SDS011;3183;51.010;6.898;2023-02-15T10:26:48;21.63;;;10.00;;
6300;SDS011;3183;51.010;6.898;2023-02-15T10:29:18;27.20;;;10.70;;
6300;SDS011;3183;51.010;6.898;2023-02-15T10:31:54;25.23;;;11.07;;
6300;SDS011;3183;51.010;6.898;2023-02-15T10:34:23;29.13;;;10.83;;
6300;SDS011;3183;51.010;6.898;2023-02-15T10:37:03;21.27;;;10.67;;
6300;SDS011;3183;51.010;6.898;2023-02-15T10:39:34;18.60;;;10.50;;
6300;SDS011;3183;51.010;6.898;2023-02-15T10:42:06;67.37;;;14.73;;
6300;SDS011;3183;51.010;6.898;2023-02-15T10:44:40;30.93;;;12.73;;
6300;SDS011;3183;51.010;6.898;2023-02-15T10:47:26;51.47;;;13.43;;
6300;SDS011;3183;51.010;6.898;2023-02-15T10:50:03;20.30;;;11.37;;
6300;SDS011;3183;51.010;6.898;2023-02-15T10:52:34;30.17;;;10.60;;
6300;SDS011;3183;51.010;6.898;2023-02-15T10:55:07;16.27;;;9.70;;
6300;SDS011;3183;51.010;6.898;2023-02-15T10:57:40;20.50;;;10.40;;
6300;SDS011;3183;51.010;6.898;2023-02-15T11:00:12;16.27;;;9.50;;
6300;SDS011;3183;51.010;6.898;2023-02-15T11:02:52;24.67;;;10.80;;
6300;SDS011;3183;51.010;6.898;2023-02-15T11:05:25;17.70;;;10.60;;
6300;SDS011;3183;51.010;6.898;2023-02-15T11:07:54;18.50;;;9.80;;
6300;SDS011;3183;51.010;6.898;2023-02-15T11:10:24;19.40;;;10.47;;
6300;SDS011;3183;51.010;6.898;2023-02-15T11:12:54;15.67;;;9.83;;
6300;SDS011;3183;51.010;6.898;2023-02-15T11:15:25;18.77;;;9.83;;
6300;SDS011;3183;51.010;6.898;2023-02-15T11:17:55;19.83;;;9.83;;
6300;SDS011;3183;51.010;6.898;2023-02-15T11:20:24;20.43;;;10.40;;
6300;SDS011;3183;51.010;6.898;2023-02-15T11:22:52;19.60;;;9.53;;
6300;SDS011;3183;51.010;6.898;2023-02-15T11:25:20;24.30;;;11.20;;
6300;SDS011;3183;51.010;6.898;2023-02-15T11:27:49;19.10;;;10.87;;
6300;SDS011;3183;51.010;6.898;2023-02-15T11:30:20;18.50;;;10.40;;
6300;SDS011;3183;51.010;6.898;2023-02-15T11:32:49;19.73;;;11.23;;
6300;SDS011;3183;51.010;6.898;2023-02-15T11:35:22;19.73;;;10.47;;
6300;SDS011;3183;51.010;6.898;2023-02-15T11:37:53;20.40;;;9.70;;
6300;SDS011;3183;51.010;6.898;2023-02-15T11:40:22;18.30;;;9.67;;
6300;SDS011;3183;51.010;6.898;2023-02-15T11:42:51;20.33;;;10.20;;
6300;SDS011;3183;51.010;6.898;2023-02-15T11:45:22;15.30;;;10.57;;
6300;SDS011;3183;51.010;6.898;2023-02-15T11:47:52;23.63;;;11.77;;
6300;SDS011;3183;51.010;6.898;2023-02-15T11:50:21;19.40;;;11.20;;
6300;SDS011;3183;51.010;6.898;2023-02-15T11:52:49;19.37;;;10.70;;
6300;SDS011;3183;51.010;6.898;2023-02-15T11:55:18;24.27;;;11.00;;
6300;SDS011;3183;51.010;6.898;2023-02-15T11:57:48;28.17;;;13.00;;
6300;SDS011;3183;51.010;6.898;2023-02-15T12:00:20;34.83;;;14.63;;
6300;SDS011;3183;51.010;6.898;2023-02-15T12:02:52;19.70;;;10.23;;
6300;SDS011;3183;51.010;6.898;2023-02-15T12:05:20;22.17;;;11.17;;
6300;SDS011;3183;51.010;6.898;2023-02-15T12:07:50;21.40;;;10.87;;
6300;SDS011;3183;51.010;6.898;2023-02-15T12:10:20;16.63;;;10.07;;
6300;SDS011;3183;51.010;6.898;2023-02-15T12:12:50;18.90;;;11.00;;
6300;SDS011;3183;51.010;6.898;2023-02-15T12:15:34;16.80;;;9.47;;
6300;SDS011;3183;51.010;6.898;2023-02-15T12:18:02;18.70;;;10.90;;
6300;SDS011;3183;51.010;6.898;2023-02-15T12:20:31;19.73;;;9.20;;
6300;SDS011;3183;51.010;6.898;2023-02-15T12:23:00;38.43;;;16.17;;
6300;SDS011;3183;51.010;6.898;2023-02-15T12:25:29;24.50;;;10.87;;
6300;SDS011;3183;51.010;6.898;2023-02-15T12:27:57;24.30;;;11.03;;
6300;SDS011;3183;51.010;6.898;2023-02-15T12:30:26;23.83;;;10.37;;
6300;SDS011;3183;51.010;6.898;2023-02-15T12:32:56;16.33;;;9.70;;
6300;SDS011;3183;51.010;6.898;2023-02-15T12:35:26;19.23;;;9.90;;
6300;SDS011;3183;51.010;6.898;2023-02-15T12:37:55;18.53;;;10.20;;
6300;SDS011;3183;51.010;6.898;2023-02-15T12:40:24;23.23;;;11.07;;
6300;SDS011;3183;51.010;6.898;2023-02-15T12:42:52;20.83;;;10.70;;
6300;SDS011;3183;51.010;6.898;2023-02-15T12:45:21;19.70;;;11.37;;
6300;SDS011;3183;51.010;6.898;2023-02-15T12:47:50;24.63;;;12.77;;
6300;SDS011;3183;51.010;6.898;2023-02-15T12:50:34;17.60;;;10.40;;
6300;SDS011;3183;51.010;6.898;2023-02-15T12:53:06;16.30;;;9.27;;
6300;SDS011;3183;51.010;6.898;2023-02-15T12:55:35;26.70;;;12.30;;
6300;SDS011;3183;51.010;6.898;2023-02-15T12:58:05;20.63;;;10.90;;
6300;SDS011;3183;51.010;6.898;2023-02-15T13:00:33;16.70;;;9.77;;
6300;SDS011;3183;51.010;6.898;2023-02-15T13:03:00;14.70;;;9.23;;
6300;SDS011;3183;51.010;6.898;2023-02-15T13:05:30;18.13;;;10.00;;
6300;SDS011;3183;51.010;6.898;2023-02-15T13:07:58;21.03;;;10.33;;
6300;SDS011;3183;51.010;6.898;2023-02-15T13:10:26;19.60;;;10.27;;
6300;SDS011;3183;51.010;6.898;2023-02-15T13:12:56;18.10;;;10.63;;
6300;SDS011;3183;51.010;6.898;2023-02-15T13:15:24;22.10;;;9.83;;
6300;SDS011;3183;51.010;6.898;2023-02-15T13:17:52;21.20;;;9.70;;
6300;SDS011;3183;51.010;6.898;2023-02-15T13:20:20;17.37;;;10.23;;
6300;SDS011;3183;51.010;6.898;2023-02-15T13:22:48;23.13;;;11.33;;
6300;SDS011;3183;51.010;6.898;2023-02-15T13:25:18;22.90;;;10.80;;
6300;SDS011;3183;51.010;6.898;2023-02-15T13:27:48;18.23;;;10.90;;
6300;SDS011;3183;51.010;6.898;2023-02-15T13:30:21;20.43;;;11.80;;
6300;SDS011;3183;51.010;6.898;2023-02-15T13:32:50;22.03;;;11.93;;
6300;SDS011;3183;51.010;6.898;2023-02-15T13:35:18;16.70;;;9.93;;
6300;SDS011;3183;51.010;6.898;2023-02-15T13:37:49;17.90;;;10.77;;
6300;SDS011;3183;51.010;6.898;2023-02-15T13:40:19;19.90;;;10.23;;
6300;SDS011;3183;51.010;6.898;2023-02-15T13:42:49;23.60;;;13.27;;
6300;SDS011;3183;51.010;6.898;2023-02-15T13:45:28;19.67;;;10.10;;
6300;SDS011;3183;51.010;6.898;2023-02-15T13:47:59;20.13;;;10.23;;
6300;SDS011;3183;51.010;6.898;2023-02-15T13:50:36;23.93;;;10.67;;
6300;SDS011;3183;51.010;6.898;2023-02-15T13:53:14;17.33;;;9.93;;
6300;SDS011;3183;51.010;6.898;2023-02-15T13:55:46;16.87;;;9.80;;
6300;SDS011;3183;51.010;6.898;2023-02-15T13:58:21;47.47;;;28.73;;
6300;SDS011;3183;51.010;6.898;2023-02-15T14:00:57;21.33;;;10.93;;
6300;SDS011;3183;51.010;6.898;2023-02-15T14:03:38;20.03;;;10.80;;
6300;SDS011;3183;51.010;6.898;2023-02-15T14:06:13;20.00;;;10.27;;
6300;SDS011;3183;51.010;6.898;2023-02-15T14:08:48;23.63;;;11.10;;
6300;SDS011;3183;51.010;6.898;2023-02-15T14:11:19;19.47;;;9.80;;
6300;SDS011;3183;51.010;6.898;2023-02-15T14:13:51;17.80;;;9.70;;
6300;SDS011;3183;51.010;6.898;2023-02-15T14:16:27;18.27;;;10.33;;
6300;SDS011;3183;51.010;6.898;2023-02-15T14:18:59;17.03;;;9.20;;
6300;SDS011;3183;51.010;6.898;2023-02-15T14:21:31;18.40;;;9.50;;
6300;SDS011;3183;51.010;6.898;2023-02-15T14:24:02;16.87;;;9.90;;
6300;SDS011;3183;51.010;6.898;2023-02-15T14:26:35;14.80;;;9.17;;
6300;SDS011;3183;51.010;6.898;2023-02-15T14:29:08;18.70;;;10.03;;
6300;SDS011;3183;51.010;6.898;2023-02-15T14:31:38;16.40;;;9.30;;
6300;SDS011;3183;51.010;6.898;2023-02-15T14:34:07;18.40;;;11.77;;
6300;SDS011;3183;51.010;6.898;2023-02-15T14:36:40;27.50;;;13.00;;
6300;SDS011;3183;51.010;6.898;2023-02-15T14:39:11;20.73;;;10.70;;
6300;SDS011;3183;51.010;6.898;2023-02-15T14:41:57;15.93;;;9.40;;
6300;SDS011;3183;51.010;6.898;2023-02-15T14:44:27;18.60;;;10.83;;
6300;SDS011;3183;51.010;6.898;2023-02-15T14:47:03;21.43;;;10.17;;
6300;SDS011;3183;51.010;6.898;2023-02-15T14:49:32;19.70;;;10.40;;
6300;SDS011;3183;51.010;6.898;2023-02-15T14:52:01;16.53;;;9.73;;
6300;SDS011;3183;51.010;6.898;2023-02-15T14:57:23;16.50;;;9.07;;
6300;SDS011;3183;51.010;6.898;2023-02-15T14:59:53;19.30;;;10.00;;
6300;SDS011;3183;51.010;6.898;2023-02-15T15:02:24;21.67;;;10.33;;
6300;SDS011;3183;51.010;6.898;2023-02-15T15:04:56;17.33;;;10.47;;
6300;SDS011;3183;51.010;6.898;2023-02-15T15:07:25;19.63;;;10.13;;
6300;SDS011;3183;51.010;6.898;2023-02-15T15:09:58;17.43;;;10.40;;
6300;SDS011;3183;51.010;6.898;2023-02-15T15:12:38;16.83;;;8.63;;
6300;SDS011;3183;51.010;6.898;2023-02-15T15:15:05;23.30;;;9.03;;